X  Schließen Metar Luftfahrt Wetterdaten     EKVJ Stauning Airport
Temperatur
13°C Temperatur
13°C Taupunkt
100% Feuchtigkeit



Wind
4 M/S
9 MPH
14 KM/H
8 KTS



350°
Nord
Aktuelle Wetterlage

Meistens bewölkt Meistens bewölkt
Luftdruck 998.92 (hPa) - 29.5 (inHg)
Sichtweite 6.2 (Meile) - 10 (km)
Flughafen
Flughafen Code EKVJ

Position : Stauning Airport
Entfernung: 14 (km)

Metar:
EKVJ 261350Z 35008KT 310V030 9999 BKN011 13/13 Q0999

Zeit: 09-26-2020 15:50 CEST